Festivo — EAEQ — position and weather

sailwx.info

Track history (hours):
 
Tides and Currents Weather Stations Pressure Air Temp Water Temp Dewpoint Dewpoint Depression Visibility Wind Speed Wind Dir Waves Ship Positions

Festivo

Last reported at 2014-Nov-22 15:33 UTC. Time now 2014-Nov-23 20:07 UTC.
Position N 35°55' W 005°17'.

Length 136 m; draft 4.5 m.

Type: Cargo ship. MMSI: 225410000.

Date/timePositionNaut miles runAvg speedWind from/ knotsBaromVisibWave heightAir tempDewpointWater temp
2014-Nov-22 15:33N 35°55' W 005°17'2 2.0
2014-Nov-22 14:32N 35°54' W 005°19'0 0.0
2014-Nov-22 13:32N 35°54' W 005°19'0 0.0
2014-Nov-22 12:32N 35°54' W 005°19'0 0.0
2014-Nov-22 11:32N 35°54' W 005°19'0 0.0
2014-Nov-22 10:32N 35°54' W 005°19'0 0.0
2014-Nov-22 09:32N 35°54' W 005°19'5 4.7
2014-Nov-22 08:33N 35°57' W 005°16'  
2014-Nov-18 09:33N 35°57' W 005°16'4 4.2
2014-Nov-18 08:31N 35°54' W 005°19'0 0.0
2014-Nov-18 07:31N 35°54' W 005°19'0 0.0
2014-Nov-18 06:31N 35°54' W 005°19'0 0.2
2014-Nov-18 05:33N 35°54' W 005°19'6 5.8
2014-Nov-18 04:33N 35°58' W 005°15'  
2014-Nov-15 16:33N 35°56' W 005°17'3 2.6
2014-Nov-15 15:33N 35°54' W 005°19'0 0.0
2014-Nov-15 14:33N 35°54' W 005°19'0 0.0
2014-Nov-15 13:33N 35°54' W 005°19'0 0.0
2014-Nov-15 12:33N 35°54' W 005°19'0 0.0
2014-Nov-15 11:33N 35°54' W 005°19'0 0.0
2014-Nov-15 10:33N 35°54' W 005°19'0 0.0
2014-Nov-15 09:33N 35°54' W 005°19'0 0.0
2014-Nov-15 08:33N 35°54' W 005°19'5 4.7
2014-Nov-15 07:33N 35°57' W 005°15'2 0.0
2014-Nov-13 10:28N 35°58' W 005°13'7 7.3
2014-Nov-13 09:34N 35°54' W 005°19'0 0.0
2014-Nov-13 08:32N 35°54' W 005°19'0 0.0
2014-Nov-13 07:32N 35°54' W 005°19'0 0.0
2014-Nov-13 06:33N 35°54' W 005°19'  
Track history (hours):
 
Tides and Currents Weather Stations Pressure Air Temp Water Temp Dewpoint Dewpoint Depression Visibility Wind Speed Wind Dir Waves Ship Positions

Festivo

Last reported at 2014-Nov-22 15:33 UTC. Time now 2014-Nov-23 20:07 UTC.
Position N 35°55' W 005°17'.

Length 136 m; draft 4.5 m.

Type: Cargo ship. MMSI: 225410000.

Date/timePositionNaut miles runAvg speedWind from/ knotsBaromVisibWave heightAir tempDewpointWater temp
2014-Nov-22 15:33N 35°55' W 005°17'2 2.0
2014-Nov-22 14:32N 35°54' W 005°19'0 0.0
2014-Nov-22 13:32N 35°54' W 005°19'0 0.0
2014-Nov-22 12:32N 35°54' W 005°19'0 0.0
2014-Nov-22 11:32N 35°54' W 005°19'0 0.0
2014-Nov-22 10:32N 35°54' W 005°19'0 0.0
2014-Nov-22 09:32N 35°54' W 005°19'5 4.7
2014-Nov-22 08:33N 35°57' W 005°16'  
2014-Nov-18 09:33N 35°57' W 005°16'4 4.2
2014-Nov-18 08:31N 35°54' W 005°19'0 0.0
2014-Nov-18 07:31N 35°54' W 005°19'0 0.0
2014-Nov-18 06:31N 35°54' W 005°19'0 0.2
2014-Nov-18 05:33N 35°54' W 005°19'6 5.8
2014-Nov-18 04:33N 35°58' W 005°15'  
2014-Nov-15 16:33N 35°56' W 005°17'3 2.6
2014-Nov-15 15:33N 35°54' W 005°19'0 0.0
2014-Nov-15 14:33N 35°54' W 005°19'0 0.0
2014-Nov-15 13:33N 35°54' W 005°19'0 0.0
2014-Nov-15 12:33N 35°54' W 005°19'0 0.0
2014-Nov-15 11:33N 35°54' W 005°19'0 0.0
2014-Nov-15 10:33N 35°54' W 005°19'0 0.0
2014-Nov-15 09:33N 35°54' W 005°19'0 0.0
2014-Nov-15 08:33N 35°54' W 005°19'5 4.7
2014-Nov-15 07:33N 35°57' W 005°15'2 0.0
2014-Nov-13 10:28N 35°58' W 005°13'7 7.3
2014-Nov-13 09:34N 35°54' W 005°19'0 0.0
2014-Nov-13 08:32N 35°54' W 005°19'0 0.0
2014-Nov-13 07:32N 35°54' W 005°19'0 0.0
2014-Nov-13 06:33N 35°54' W 005°19'  

Dump ship's entire track history